55OK weather

Gilstrap Field
Inola, Oklahoma, United States

Public forecast

Using degrees Fahrenheit for public forecast. Weather courtesy of forecast.io.

METAR (pilot weather report)

Closest report is Claremore Regional Airport, 6.3 nm (11.7 km) NE. Retrieved 2019/04/24 17:35 UTC (0 seconds ago):

KGCM 241735Z AUTO 00000KT 7SM OVC010 15/12 A2993 RMK AO2

TAF (pilot weather forecast)

Closest forecast is Tulsa International Airport, 15.1 nm (27.9 km) W. Retrieved 2019/04/24 12:42 UTC (5 hours ago):

TAF KTUL 241140Z 2412/2512 31004KT P6SM SCT006 OVC012 TEMPO 2412/2415 5SM BR BKN006 FM241500 31005KT P6SM OVC015 FM242000 31006KT P6SM BKN035 FM250200 VRB03KT P6SM BKN250